createdAt,value
2022-08-03T00:01:48.739Z,100880.22
2022-08-03T00:04:38.122Z,100891.63
2022-08-03T00:07:27.547Z,100891.16
2022-08-03T00:10:17.423Z,100906.94
2022-08-03T00:13:07.251Z,100900.00
2022-08-03T00:15:57.672Z,100903.03
2022-08-03T00:18:47.513Z,100907.06
2022-08-03T00:21:37.235Z,100912.41
2022-08-03T00:24:27.006Z,100914.09
2022-08-03T00:27:19.413Z,100913.91
2022-08-03T00:30:09.807Z,100913.84
2022-08-03T00:33:00.222Z,100918.06
2022-08-03T00:35:51.281Z,100924.78
2022-08-03T00:38:41.849Z,100924.41
2022-08-03T00:41:31.985Z,100915.31
2022-08-03T00:44:22.455Z,100913.09
2022-08-03T00:47:12.191Z,100922.69
2022-08-03T00:50:02.863Z,100917.31
2022-08-03T00:52:58.548Z,100917.59
2022-08-03T00:55:48.600Z,100910.47
2022-08-03T00:58:38.613Z,100913.88
2022-08-03T01:01:29.197Z,100909.13
2022-08-03T01:04:22.931Z,100915.53
2022-08-03T01:07:40.411Z,100912.50
2022-08-03T01:10:33.453Z,100908.38
2022-08-03T01:14:00.947Z,100904.81
2022-08-03T01:17:01.756Z,100906.78
2022-08-03T01:20:07.783Z,100904.38
2022-08-03T01:23:05.695Z,100913.50
2022-08-03T01:26:40.431Z,100916.50
2022-08-03T01:29:47.195Z,100922.13
2022-08-03T01:33:01.048Z,100919.38
2022-08-03T01:36:11.652Z,100909.50
2022-08-03T01:39:06.222Z,100910.16
2022-08-03T01:42:02.019Z,100910.44
2022-08-03T01:44:53.726Z,100913.81
2022-08-03T01:47:44.733Z,100907.19
2022-08-03T01:50:35.746Z,100901.88
2022-08-03T01:53:25.457Z,100899.84
2022-08-03T01:56:15.070Z,100904.44
2022-08-03T01:59:05.133Z,100899.75
2022-08-03T02:02:28.677Z,100897.06
2022-08-03T02:05:10.774Z,100892.09
2022-08-03T02:08:04.172Z,100893.31
2022-08-03T02:10:55.816Z,100888.69
2022-08-03T02:13:47.084Z,100888.03
2022-08-03T02:16:37.443Z,100883.44
2022-08-03T02:19:32.445Z,100878.53
2022-08-03T02:22:26.586Z,100885.41
2022-08-03T02:25:19.438Z,100876.09
2022-08-03T02:28:14.267Z,100874.66
2022-08-03T02:31:10.621Z,100876.59
2022-08-03T02:34:04.266Z,100862.25
2022-08-03T02:36:55.930Z,100868.63
2022-08-03T02:39:46.573Z,100865.47
2022-08-03T02:42:37.887Z,100856.78
2022-08-03T02:45:28.741Z,100859.94
2022-08-03T02:48:24.052Z,100849.38
2022-08-03T02:51:13.832Z,100848.69
2022-08-03T02:54:05.638Z,100844.03
2022-08-03T02:56:56.852Z,100843.78
2022-08-03T02:59:48.189Z,100850.41
2022-08-03T03:02:39.088Z,100847.03
2022-08-03T03:05:53.596Z,100849.88
2022-08-03T03:08:44.005Z,100847.44
2022-08-03T03:11:37.074Z,100849.50
2022-08-03T03:14:33.694Z,100831.22
2022-08-03T03:17:24.286Z,100832.50
2022-08-03T03:20:14.894Z,100836.72
2022-08-03T03:23:04.727Z,100825.16
2022-08-03T03:25:57.497Z,100817.69
2022-08-03T03:28:47.823Z,100813.78
2022-08-03T03:31:38.742Z,100810.31
2022-08-03T03:34:32.057Z,100804.56
2022-08-03T03:37:21.645Z,100802.50
2022-08-03T03:40:12.530Z,100799.16
2022-08-03T03:43:02.926Z,100800.19
2022-08-03T03:45:55.077Z,100803.31
2022-08-03T03:48:44.936Z,100787.47
2022-08-03T03:51:34.849Z,100794.16
2022-08-03T03:54:25.440Z,100784.16
2022-08-03T03:57:18.799Z,100772.50
2022-08-03T04:00:09.540Z,100767.50
2022-08-03T04:02:59.897Z,100754.19
2022-08-03T04:06:07.601Z,100756.69
2022-08-03T04:09:15.808Z,100748.56
2022-08-03T04:12:07.282Z,100750.47
2022-08-03T04:14:59.596Z,100749.63
2022-08-03T04:17:51.861Z,100757.72
2022-08-03T04:20:42.994Z,100747.91
2022-08-03T04:23:36.390Z,100741.06
2022-08-03T04:26:28.314Z,100741.53
2022-08-03T04:29:18.718Z,100741.38
2022-08-03T04:32:09.391Z,100734.72
2022-08-03T04:34:59.295Z,100728.31
2022-08-03T04:37:52.055Z,100729.19
2022-08-03T04:40:44.293Z,100725.25
2022-08-03T04:43:35.514Z,100724.63
2022-08-03T04:46:29.579Z,100720.28
2022-08-03T04:49:22.340Z,100721.16
2022-08-03T04:52:12.201Z,100708.66
2022-08-03T04:55:02.860Z,100704.91
2022-08-03T04:57:52.904Z,100700.31
2022-08-03T05:00:43.790Z,100695.72
2022-08-03T05:03:34.435Z,100693.22
2022-08-03T05:06:25.042Z,100684.25
2022-08-03T05:09:45.954Z,100672.94
2022-08-03T05:12:28.389Z,100673.53
2022-08-03T05:15:22.280Z,100664.97
2022-08-03T05:18:14.124Z,100657.25
2022-08-03T05:21:05.750Z,100657.44
2022-08-03T05:23:56.193Z,100653.84
2022-08-03T05:26:46.305Z,100656.31
2022-08-03T05:29:36.327Z,100648.13
2022-08-03T05:32:26.007Z,100641.63
2022-08-03T05:35:55.881Z,100638.97
2022-08-03T05:38:28.540Z,100637.88
2022-08-03T05:41:20.962Z,100628.44
2022-08-03T05:44:14.209Z,100624.88
2022-08-03T05:47:04.096Z,100616.91
2022-08-03T05:49:53.527Z,100606.38
2022-08-03T05:52:44.692Z,100604.88
2022-08-03T05:55:34.408Z,100590.41
2022-08-03T05:58:24.286Z,100592.84
2022-08-03T06:01:26.099Z,100582.53
2022-08-03T06:04:18.655Z,100577.69
2022-08-03T06:07:09.112Z,100570.44
2022-08-03T06:10:37.354Z,100573.69
2022-08-03T06:13:09.401Z,100575.72
2022-08-03T06:15:59.410Z,100567.38
2022-08-03T06:18:49.470Z,100568.47
2022-08-03T06:21:39.929Z,100566.22
2022-08-03T06:24:30.848Z,100562.59
2022-08-03T06:27:20.932Z,100552.94
2022-08-03T06:30:27.969Z,100547.50
2022-08-03T06:33:18.164Z,100541.88
2022-08-03T06:36:08.774Z,100535.41
2022-08-03T06:39:06.368Z,100535.25
2022-08-03T06:41:58.316Z,100533.44
2022-08-03T06:44:47.706Z,100533.69
2022-08-03T06:47:39.040Z,100526.34
2022-08-03T06:50:37.815Z,100541.91
2022-08-03T06:53:28.319Z,100541.00
2022-08-03T06:56:19.025Z,100546.97
2022-08-03T07:00:09.005Z,100536.75
2022-08-03T07:02:24.777Z,100536.16
2022-08-03T07:05:18.475Z,100533.00
2022-08-03T07:08:09.174Z,100528.47
2022-08-03T07:11:00.539Z,100528.41
2022-08-03T07:13:51.307Z,100524.38
2022-08-03T07:16:42.713Z,100517.84
2022-08-03T07:19:32.423Z,100518.97
2022-08-03T07:22:25.549Z,100509.41
2022-08-03T07:25:15.275Z,100512.88
2022-08-03T07:28:06.016Z,100509.69
2022-08-03T07:30:55.447Z,100516.94
2022-08-03T07:33:45.557Z,100514.81
2022-08-03T07:36:35.882Z,100510.78
2022-08-03T07:39:25.354Z,100516.47
2022-08-03T07:42:18.007Z,100507.25
2022-08-03T07:45:09.578Z,100510.13
2022-08-03T07:48:11.782Z,100515.19
2022-08-03T07:51:02.754Z,100514.34
2022-08-03T07:53:52.992Z,100517.31
2022-08-03T07:56:43.449Z,100524.66
2022-08-03T07:59:56.627Z,100527.31
2022-08-03T08:02:45.357Z,100514.72
2022-08-03T08:05:35.638Z,100519.22
2022-08-03T08:08:26.228Z,100518.25
2022-08-03T08:11:19.207Z,100513.75
2022-08-03T08:14:09.557Z,100512.94
2022-08-03T08:17:02.323Z,100517.91
2022-08-03T08:19:53.644Z,100520.38
2022-08-03T08:22:43.811Z,100523.88
2022-08-03T08:25:34.485Z,100521.63
2022-08-03T08:28:32.808Z,100522.59
2022-08-03T08:31:23.390Z,100524.69
2022-08-03T08:34:13.785Z,100527.22
2022-08-03T08:37:04.055Z,100529.00
2022-08-03T08:39:53.825Z,100527.84
2022-08-03T08:42:56.538Z,100529.00
2022-08-03T08:45:51.797Z,100535.09
2022-08-03T08:48:46.253Z,100537.09
2022-08-03T08:51:50.938Z,100531.50
2022-08-03T08:54:50.637Z,100538.44
2022-08-03T08:57:44.580Z,100541.41
2022-08-03T09:00:34.341Z,100540.34
2022-08-03T09:03:29.648Z,100534.75
2022-08-03T09:06:21.274Z,100533.16
2022-08-03T09:09:11.190Z,100543.19
2022-08-03T09:12:41.126Z,100561.00
2022-08-03T09:15:33.199Z,100559.53
2022-08-03T09:18:34.631Z,100559.31
2022-08-03T09:21:31.720Z,100562.69
2022-08-03T09:24:40.833Z,100574.22
2022-08-03T09:27:31.819Z,100571.34
2022-08-03T09:30:34.447Z,100571.78
2022-08-03T09:33:25.226Z,100570.56
2022-08-03T09:36:39.529Z,100568.91
2022-08-03T09:39:42.178Z,100588.16
2022-08-03T09:42:32.951Z,100595.69
2022-08-03T09:45:29.683Z,100617.81
2022-08-03T09:48:26.680Z,100624.97
2022-08-03T09:51:33.231Z,100625.00
2022-08-03T09:54:34.098Z,100626.47
2022-08-03T09:57:27.477Z,100626.72
2022-08-03T10:00:18.821Z,100628.38
2022-08-03T10:03:08.561Z,100631.34
2022-08-03T10:05:59.926Z,100632.63
2022-08-03T10:09:08.341Z,100636.59
2022-08-03T10:11:58.860Z,100625.09
2022-08-03T10:14:48.589Z,100627.44
2022-08-03T10:17:40.373Z,100629.75
2022-08-03T10:20:30.787Z,100625.75
2022-08-03T10:23:21.796Z,100627.00
2022-08-03T10:26:15.689Z,100637.22
2022-08-03T10:29:12.368Z,100642.69
2022-08-03T10:32:03.679Z,100646.69
2022-08-03T10:35:00.118Z,100657.13
2022-08-03T10:38:14.484Z,100669.44
2022-08-03T10:41:04.914Z,100682.19
2022-08-03T10:44:22.890Z,100687.81
2022-08-03T10:47:12.912Z,100699.06
2022-08-03T10:50:02.902Z,100695.75
2022-08-03T10:53:03.959Z,100687.00
2022-08-03T10:56:13.116Z,100689.06
2022-08-03T10:59:07.065Z,100688.00
2022-08-03T11:02:00.974Z,100702.81
2022-08-03T11:05:31.038Z,100709.91
2022-08-03T11:08:38.562Z,100710.75
2022-08-03T11:11:30.042Z,100713.88
2022-08-03T11:14:20.258Z,100717.81
2022-08-03T11:17:15.181Z,100714.69
2022-08-03T11:20:06.823Z,100728.47
2022-08-03T11:23:00.933Z,100733.25
2022-08-03T11:26:12.362Z,100724.91
2022-08-03T11:29:31.982Z,100732.41
2022-08-03T11:32:49.148Z,100743.59
2022-08-03T11:36:02.853Z,100737.75
2022-08-03T11:39:18.451Z,100730.03
2022-08-03T11:42:26.990Z,100730.66
2022-08-03T11:45:21.243Z,100725.84
2022-08-03T11:48:18.501Z,100734.38
2022-08-03T11:51:10.146Z,100738.53
2022-08-03T11:54:05.625Z,100758.53
2022-08-03T11:56:55.375Z,100772.88
2022-08-03T11:59:44.934Z,100762.88
2022-08-03T12:02:36.101Z,100763.47
2022-08-03T12:05:51.732Z,100764.75
2022-08-03T12:08:43.305Z,100769.50
2022-08-03T12:11:33.364Z,100767.22
2022-08-03T12:14:49.545Z,100773.03
2022-08-03T12:17:36.851Z,100777.38
2022-08-03T12:20:35.294Z,100783.28
2022-08-03T12:23:25.325Z,100788.53
2022-08-03T12:26:14.712Z,100798.75
2022-08-03T12:29:05.071Z,100794.63
2022-08-03T12:31:56.045Z,100798.13
2022-08-03T12:34:51.225Z,100794.41
2022-08-03T12:37:41.048Z,100788.53
2022-08-03T12:40:31.961Z,100803.09
2022-08-03T12:43:24.733Z,100813.09
2022-08-03T12:46:17.676Z,100818.34
2022-08-03T12:49:07.462Z,100824.34
2022-08-03T12:52:02.696Z,100819.50
2022-08-03T12:55:02.401Z,100815.78
2022-08-03T12:57:52.601Z,100819.31
2022-08-03T13:00:42.446Z,100816.81
2022-08-03T13:03:42.920Z,100820.94
2022-08-03T13:06:32.874Z,100829.28
2022-08-03T13:09:22.652Z,100820.72
2022-08-03T13:12:17.060Z,100826.09
2022-08-03T13:15:06.659Z,100829.25
2022-08-03T13:17:59.939Z,100826.94
2022-08-03T13:20:49.684Z,100823.44
2022-08-03T13:23:39.486Z,100830.91
2022-08-03T13:26:34.380Z,100825.25
2022-08-03T13:29:24.118Z,100830.28
2022-08-03T13:32:13.930Z,100835.06
2022-08-03T13:35:06.875Z,100838.78
2022-08-03T13:37:57.172Z,100837.34
2022-08-03T13:40:47.242Z,100839.47
2022-08-03T13:43:40.391Z,100838.16
2022-08-03T13:46:30.909Z,100833.38
2022-08-03T13:49:21.028Z,100831.94
2022-08-03T13:52:10.818Z,100827.56
2022-08-03T13:55:01.270Z,100831.72
2022-08-03T13:58:03.795Z,100842.09
2022-08-03T14:00:56.232Z,100840.66
2022-08-03T14:03:47.815Z,100841.69
2022-08-03T14:06:37.550Z,100840.22
2022-08-03T14:09:28.172Z,100837.53
2022-08-03T14:12:18.887Z,100837.53
2022-08-03T14:15:11.389Z,100844.22
2022-08-03T14:18:03.863Z,100836.25
2022-08-03T14:20:56.332Z,100833.31
2022-08-03T14:23:47.298Z,100825.44
2022-08-03T14:26:36.416Z,100821.03
2022-08-03T14:29:25.694Z,100821.28
2022-08-03T14:32:15.175Z,100821.88
2022-08-03T14:35:05.354Z,100824.56
2022-08-03T14:37:54.689Z,100832.06
2022-08-03T14:40:44.824Z,100844.13
2022-08-03T14:43:36.006Z,100852.44
2022-08-03T14:46:26.322Z,100857.41
2022-08-03T14:50:30.260Z,100864.91
2022-08-03T14:52:27.674Z,100866.16
2022-08-03T14:55:17.082Z,100873.88
2022-08-03T14:58:19.647Z,100874.94
2022-08-03T15:02:03.397Z,100868.28
2022-08-03T15:04:21.214Z,100873.25
2022-08-03T15:07:11.333Z,100871.19
2022-08-03T15:10:02.442Z,100869.50
2022-08-03T15:12:51.877Z,100872.84
2022-08-03T15:15:42.990Z,100869.91
2022-08-03T15:18:34.994Z,100862.81
2022-08-03T15:21:46.028Z,100847.00
2022-08-03T15:24:36.112Z,100842.00
2022-08-03T15:27:26.066Z,100837.00
2022-08-03T15:30:15.683Z,100831.38
2022-08-03T15:33:05.902Z,100814.53
2022-08-03T15:35:55.543Z,100814.13
2022-08-03T15:38:45.885Z,100815.56
2022-08-03T15:41:35.774Z,100813.03
2022-08-03T15:44:26.121Z,100814.91
2022-08-03T15:47:18.857Z,100812.41
2022-08-03T15:50:09.900Z,100813.25
2022-08-03T15:53:00.495Z,100821.75
2022-08-03T15:55:53.020Z,100813.44
2022-08-03T15:59:04.578Z,100818.19
2022-08-03T16:01:58.155Z,100817.38
2022-08-03T16:04:48.765Z,100811.72
2022-08-03T16:08:03.100Z,100813.59
2022-08-03T16:10:53.251Z,100808.56
2022-08-03T16:14:11.896Z,100808.53
2022-08-03T16:16:57.171Z,100806.47
2022-08-03T16:19:46.736Z,100807.50
2022-08-03T16:22:36.950Z,100805.19
2022-08-03T16:25:26.992Z,100811.81
2022-08-03T16:28:16.951Z,100814.34
2022-08-03T16:31:07.922Z,100813.50
2022-08-03T16:33:57.384Z,100812.00
2022-08-03T16:36:50.360Z,100807.63
2022-08-03T16:39:40.370Z,100806.41
2022-08-03T16:42:35.246Z,100807.63
2022-08-03T16:45:25.560Z,100805.94
2022-08-03T16:48:16.544Z,100798.03
2022-08-03T16:51:06.529Z,100798.03
2022-08-03T16:54:08.001Z,100806.34
2022-08-03T16:57:02.559Z,100802.38
2022-08-03T16:59:51.934Z,100800.94
2022-08-03T17:02:48.151Z,100800.94
2022-08-03T17:05:47.038Z,100803.00
2022-08-03T17:08:37.029Z,100799.44
2022-08-03T17:11:33.043Z,100793.22
2022-08-03T17:14:28.258Z,100789.38
2022-08-03T17:17:25.524Z,100774.97
2022-08-03T17:20:16.686Z,100775.56
2022-08-03T17:23:34.288Z,100786.97
2022-08-03T17:26:30.270Z,100788.13
2022-08-03T17:29:26.324Z,100788.50
2022-08-03T17:32:22.180Z,100776.78
2022-08-03T17:35:14.200Z,100780.91
2022-08-03T17:38:06.562Z,100780.91
2022-08-03T17:40:59.028Z,100784.63
2022-08-03T17:44:15.244Z,100784.63
2022-08-03T17:47:01.575Z,100781.28
2022-08-03T17:49:51.389Z,100775.88
2022-08-03T17:52:48.249Z,100779.59
2022-08-03T17:55:55.170Z,100785.78
2022-08-03T17:59:08.472Z,100777.94
2022-08-03T18:02:29.957Z,100783.28
2022-08-03T18:05:22.884Z,100796.59
2022-08-03T18:08:35.418Z,100803.22
2022-08-03T18:11:37.234Z,100804.03
2022-08-03T18:14:57.903Z,100795.75
2022-08-03T18:18:02.181Z,100795.28
2022-08-03T18:20:52.333Z,100794.84
2022-08-03T18:23:42.133Z,100794.03
2022-08-03T18:26:32.531Z,100804.84
2022-08-03T18:29:24.134Z,100806.03
2022-08-03T18:32:16.862Z,100803.56
2022-08-03T18:35:08.221Z,100805.22
2022-08-03T18:38:04.942Z,100815.38
2022-08-03T18:40:59.942Z,100815.56
2022-08-03T18:44:06.589Z,100814.72
2022-08-03T18:47:16.310Z,100807.66
2022-08-03T18:50:50.028Z,100805.59
2022-08-03T18:54:03.579Z,100794.91
2022-08-03T18:56:56.541Z,100789.69
2022-08-03T18:59:56.360Z,100780.94
2022-08-03T19:02:51.264Z,100773.22
2022-08-03T19:06:14.579Z,100775.53
2022-08-03T19:09:21.455Z,100768.41
2022-08-03T19:12:33.875Z,100763.84
2022-08-03T19:15:37.054Z,100774.16
2022-08-03T19:18:34.577Z,100768.75
2022-08-03T19:21:24.433Z,100774.53
2022-08-03T19:24:15.492Z,100764.78
2022-08-03T19:27:06.830Z,100767.66
2022-08-03T19:30:08.214Z,100777.78
2022-08-03T19:33:05.308Z,100771.75
2022-08-03T19:35:57.092Z,100764.88
2022-08-03T19:38:47.822Z,100767.75
2022-08-03T19:41:41.621Z,100763.22
2022-08-03T19:44:33.742Z,100773.75
2022-08-03T19:47:30.729Z,100761.91
2022-08-03T19:50:22.043Z,100758.56
2022-08-03T19:53:12.777Z,100767.69
2022-08-03T19:56:07.989Z,100776.34
2022-08-03T19:58:59.879Z,100777.34
2022-08-03T20:05:00.509Z,100764.06
2022-08-03T20:07:52.175Z,100774.00
2022-08-03T20:10:41.646Z,100779.63
2022-08-03T20:13:39.015Z,100781.84
2022-08-03T20:16:29.004Z,100774.97
2022-08-03T20:19:20.011Z,100766.22
2022-08-03T20:22:14.493Z,100772.00
2022-08-03T20:25:10.574Z,100773.22
2022-08-03T20:28:13.590Z,100757.84
2022-08-03T20:31:04.483Z,100756.19
2022-08-03T20:33:56.525Z,100759.47
2022-08-03T20:36:47.315Z,100754.44
2022-08-03T20:39:37.515Z,100745.66
2022-08-03T20:42:29.963Z,100754.78
2022-08-03T20:45:59.918Z,100747.72
2022-08-03T20:48:32.545Z,100739.78
2022-08-03T20:51:50.030Z,100740.66
2022-08-03T20:54:32.503Z,100726.31
2022-08-03T20:57:22.203Z,100721.13
2022-08-03T21:00:14.323Z,100729.38
2022-08-03T21:03:04.300Z,100727.69
2022-08-03T21:05:55.533Z,100721.00
2022-08-03T21:08:46.867Z,100712.28
2022-08-03T21:11:51.009Z,100710.59
2022-08-03T21:13:09.393Z,100778.38
2022-08-03T21:15:03.723Z,100706.59
2022-08-03T21:17:56.968Z,100710.16
2022-08-03T21:20:48.432Z,100716.72
2022-08-03T21:23:48.960Z,100711.72
2022-08-03T21:26:41.293Z,100717.31
2022-08-03T21:29:31.240Z,100724.53
2022-08-03T21:32:32.809Z,100726.22
2022-08-03T21:35:24.504Z,100740.72
2022-08-03T21:38:29.461Z,100745.28
2022-08-03T21:41:20.467Z,100758.13
2022-08-03T21:44:10.424Z,100757.28
2022-08-03T21:47:01.353Z,100758.66
2022-08-03T21:50:08.385Z,100761.34
2022-08-03T21:52:58.964Z,100766.75
2022-08-03T21:56:06.109Z,100779.56
2022-08-03T21:58:58.068Z,100781.44
2022-08-03T22:01:51.563Z,100784.31
2022-08-03T22:04:55.240Z,100779.94
2022-08-03T22:07:46.135Z,100778.28
2022-08-03T22:10:36.367Z,100778.28
2022-08-03T22:13:43.793Z,100770.19
2022-08-03T22:16:37.444Z,100779.28
2022-08-03T22:19:27.432Z,100779.78
2022-08-03T22:22:20.530Z,100779.78
2022-08-03T22:25:13.964Z,100778.28
2022-08-03T22:28:11.156Z,100784.50
2022-08-03T22:31:57.639Z,100786.72
2022-08-03T22:34:10.964Z,100787.38
2022-08-03T22:37:05.263Z,100787.38
2022-08-03T22:39:55.371Z,100784.69
2022-08-03T22:42:47.296Z,100782.63
2022-08-03T22:45:45.832Z,100789.06
2022-08-03T22:48:48.741Z,100784.69
2022-08-03T22:51:38.364Z,100781.97
2022-08-03T22:54:30.155Z,100789.06
2022-08-03T22:57:21.754Z,100790.72
2022-08-03T23:00:14.552Z,100801.50
2022-08-03T23:03:04.838Z,100811.09
2022-08-03T23:06:00.477Z,100808.56
2022-08-03T23:08:53.684Z,100813.97
2022-08-03T23:11:47.605Z,100809.88
2022-08-03T23:14:41.043Z,100815.28
2022-08-03T23:17:33.168Z,100812.59
2022-08-03T23:20:26.624Z,100825.03
2022-08-03T23:23:16.609Z,100820.31
2022-08-03T23:26:10.272Z,100826.72
2022-08-03T23:29:04.971Z,100834.06
2022-08-03T23:31:56.431Z,100834.06
2022-08-03T23:35:06.211Z,100832.03
2022-08-03T23:38:21.571Z,100839.75
2022-08-03T23:41:10.257Z,100844.63
2022-08-03T23:44:01.670Z,100854.19
2022-08-03T23:46:53.740Z,100855.50
2022-08-03T23:49:43.398Z,100846.50
2022-08-03T23:52:47.768Z,100850.69
2022-08-03T23:55:53.584Z,100846.22
2022-08-03T23:59:01.488Z,100849.59
